Time;durP1;ratioP1;P1;durP2;ratioP2;P2;SDS_P1;SDS_P2;PMS_P1;PMS_P2;Temp;Humidity;BMP_temperature;BMP_pressure;BME280_temperature;BME280_humidity;BME280_pressure;Samples;Min_cycle;Max_cycle;Signal;HPM_P1;HPM_P2
2023/05/29 00:01:59;;;;;;;11.00;7.30;;;;;;;9.80;72.22;101283.53;5053609;28;20243;-70
2023/05/29 00:04:25;;;;;;;13.00;8.27;;;;;;;9.73;71.08;101286.59;5053931;28;20257;-70
2023/05/29 00:06:53;;;;;;;9.60;6.97;;;;;;;9.66;68.12;101283.63;5053483;28;20207;-70
2023/05/29 00:09:19;;;;;;;8.93;6.43;;;;;;;9.64;69.18;101283.13;5053899;28;20593;-70
2023/05/29 00:11:50;;;;;;;10.17;7.30;;;;;;;9.64;70.85;101288.41;5038982;28;20211;-70
2023/05/29 00:14:19;;;;;;;12.00;7.03;;;;;;;9.61;69.54;101291.66;5047267;28;20286;-70
2023/05/29 00:16:46;;;;;;;8.27;6.47;;;;;;;9.61;70.99;101290.88;5038663;28;20204;-70
2023/05/29 00:19:13;;;;;;;9.57;6.97;;;;;;;9.59;71.69;101280.66;5053538;28;20215;-70
2023/05/29 00:21:39;;;;;;;9.43;7.17;;;;;;;9.57;72.11;101289.94;5052027;28;20219;-70
2023/05/29 00:24:07;;;;;;;11.40;7.40;;;;;;;9.54;71.97;101286.03;5044691;28;20214;-70
2023/05/29 00:26:33;;;;;;;10.93;6.47;;;;;;;9.55;72.78;101289.44;5053368;28;20294;-70
2023/05/29 00:29:00;;;;;;;10.10;7.03;;;;;;;9.50;72.58;101286.94;5053616;28;20278;-70
2023/05/29 00:31:27;;;;;;;15.23;6.77;;;;;;;9.47;72.23;101293.56;5034963;28;20239;-70
2023/05/29 00:33:54;;;;;;;8.30;6.90;;;;;;;9.41;71.38;101284.25;5045131;28;20268;-70
2023/05/29 00:36:23;;;;;;;7.17;6.30;;;;;;;9.37;71.31;101288.53;5032454;28;20247;-70
2023/05/29 00:38:50;;;;;;;8.83;6.33;;;;;;;9.37;72.02;101280.63;5034479;28;20216;-70
2023/05/29 00:41:20;;;;;;;9.73;6.73;;;;;;;9.36;71.17;101286.19;5053177;28;20219;-69
2023/05/29 00:43:46;;;;;;;8.97;6.63;;;;;;;9.36;72.84;101281.72;5052557;28;20199;-70
2023/05/29 00:46:14;;;;;;;11.77;7.37;;;;;;;9.31;71.03;101289.00;5034863;28;20195;-70
2023/05/29 00:48:42;;;;;;;7.53;6.53;;;;;;;9.31;72.55;101292.38;5031719;28;20196;-69
2023/05/29 00:51:09;;;;;;;7.97;6.43;;;;;;;9.29;73.13;101280.59;5027737;28;20231;-69
2023/05/29 00:53:36;;;;;;;8.67;6.30;;;;;;;9.27;73.21;101280.13;5052947;28;20210;-70
2023/05/29 00:56:04;;;;;;;7.83;6.13;;;;;;;9.24;72.95;101278.84;5045585;28;20225;-70
2023/05/29 00:58:35;;;;;;;12.77;6.87;;;;;;;9.23;73.66;101279.16;5056251;28;20211;-70
2023/05/29 01:01:01;;;;;;;8.47;6.10;;;;;;;9.22;74.25;101278.34;5052926;28;20582;-69
2023/05/29 01:03:28;;;;;;;8.17;6.17;;;;;;;9.19;74.11;101289.50;5034683;28;20195;-70
2023/05/29 01:05:54;;;;;;;7.50;5.80;;;;;;;9.14;73.79;101275.66;5034935;28;20230;-70
2023/05/29 01:08:20;;;;;;;7.27;5.60;;;;;;;9.12;73.89;101285.72;5019889;28;20200;-70
2023/05/29 01:10:48;;;;;;;8.70;6.47;;;;;;;9.08;73.47;101287.41;5017015;28;20327;-69
2023/05/29 01:13:20;;;;;;;9.57;5.80;;;;;;;9.05;74.14;101287.97;5052683;28;20183;-70
2023/05/29 01:15:55;;;;;;;8.17;6.23;;;;;;;9.01;73.65;101289.69;5033823;28;20659;-70
2023/05/29 01:18:32;;;;;;;8.73;5.93;;;;;;;9.00;74.45;101293.38;5034930;28;20562;-69
2023/05/29 01:21:08;;;;;;;10.03;6.10;;;;;;;8.98;75.36;101285.78;5034749;28;20195;-69
2023/05/29 01:24:03;;;;;;;9.80;6.33;;;;;;;8.95;75.53;101286.34;5043850;28;20214;-70
2023/05/29 01:26:46;;;;;;;7.57;6.10;;;;;;;8.93;75.70;101301.69;5018187;28;20203;-69
2023/05/29 01:29:15;;;;;;;13.00;6.63;;;;;;;8.92;76.18;101299.34;5014976;28;20196;-69
2023/05/29 01:31:43;;;;;;;7.27;5.93;;;;;;;8.88;75.55;101303.63;5014584;28;20258;-70
2023/05/29 01:34:09;;;;;;;6.70;5.40;;;;;;;8.86;75.68;101306.56;5014811;28;20203;-69
2023/05/29 01:36:36;;;;;;;10.23;7.53;;;;;;;8.83;75.54;101303.75;5048733;28;20207;-70
2023/05/29 01:39:03;;;;;;;9.50;6.53;;;;;;;8.80;75.52;101307.00;5034109;28;20219;-70
2023/05/29 01:41:30;;;;;;;9.83;6.43;;;;;;;8.77;76.08;101294.41;5034401;28;20288;-70
2023/05/29 01:43:59;;;;;;;7.80;6.10;;;;;;;8.76;76.61;101300.75;5050866;28;20203;-70
2023/05/29 01:46:26;;;;;;;9.73;6.40;;;;;;;8.71;76.07;101299.00;5034530;28;20213;-69
2023/05/29 01:48:53;;;;;;;7.97;6.13;;;;;;;8.68;76.11;101296.16;5033782;28;20199;-69
2023/05/29 01:51:20;;;;;;;7.80;6.10;;;;;;;8.66;76.29;101296.47;5037841;28;20222;-69
2023/05/29 01:53:47;;;;;;;10.87;6.53;;;;;;;8.65;76.59;101300.16;5013984;28;20223;-69
2023/05/29 01:56:13;;;;;;;9.57;6.10;;;;;;;8.60;76.56;101302.91;5026731;28;20206;-70
2023/05/29 01:58:41;;;;;;;11.33;6.07;;;;;;;8.59;76.99;101295.31;5031495;28;20224;-70
2023/05/29 02:01:09;;;;;;;10.40;5.70;;;;;;;8.56;77.24;101298.53;5033757;28;20222;-70
2023/05/29 02:03:36;;;;;;;9.33;5.73;;;;;;;8.47;75.79;101295.81;5051783;28;20202;-70
2023/05/29 02:06:02;;;;;;;8.97;6.13;;;;;;;8.44;76.08;101306.16;5034192;28;20273;-70
2023/05/29 02:08:29;;;;;;;12.20;5.93;;;;;;;8.37;76.88;101309.16;5040447;28;20655;-69
2023/05/29 02:10:58;;;;;;;8.53;6.17;;;;;;;8.34;76.68;101301.84;5033782;28;20219;-69
2023/05/29 02:13:27;;;;;;;7.30;5.97;;;;;;;8.30;77.36;101303.53;5033911;28;20201;-70
2023/05/29 02:15:54;;;;;;;8.30;6.03;;;;;;;8.31;77.47;101302.44;5059925;28;20198;-70
2023/05/29 02:18:25;;;;;;;8.83;6.13;;;;;;;8.23;77.37;101297.84;5033492;28;20196;-70
2023/05/29 02:20:51;;;;;;;7.97;5.50;;;;;;;8.15;76.23;101301.16;5022754;28;20250;-70
2023/05/29 02:23:21;;;;;;;10.07;6.07;;;;;;;8.15;77.08;101302.97;5019945;28;20198;-69
2023/05/29 02:25:48;;;;;;;9.63;5.97;;;;;;;8.11;77.91;101292.25;5041126;28;20195;-70
2023/05/29 02:28:14;;;;;;;7.90;6.27;;;;;;;8.10;78.08;101288.09;5027780;28;20218;-70
2023/05/29 02:30:41;;;;;;;8.27;6.20;;;;;;;8.08;78.17;101303.34;5050599;28;20201;-70
2023/05/29 02:33:09;;;;;;;6.37;5.33;;;;;;;8.03;77.87;101295.56;5023504;28;20701;-70
2023/05/29 02:35:37;;;;;;;9.37;5.90;;;;;;;8.03;78.41;101300.06;5027603;28;20207;-70
2023/05/29 02:38:04;;;;;;;7.27;5.53;;;;;;;7.99;78.73;101301.69;5033342;28;20662;-69
2023/05/29 02:40:30;;;;;;;7.97;5.77;;;;;;;7.93;77.94;101303.63;5033571;28;20540;-70
2023/05/29 02:42:58;;;;;;;8.70;5.57;;;;;;;7.93;79.19;101301.00;5050808;28;20275;-69
2023/05/29 02:45:25;;;;;;;7.00;5.40;;;;;;;7.90;78.28;101304.22;5033261;28;20219;-70
2023/05/29 02:47:51;;;;;;;9.40;5.70;;;;;;;7.82;77.30;101309.38;5051106;28;20242;-69
2023/05/29 02:50:17;;;;;;;7.07;5.70;;;;;;;7.83;78.76;101308.28;5033413;28;20206;-69
2023/05/29 02:52:45;;;;;;;8.30;4.83;;;;;;;7.80;79.33;101312.28;5033477;28;20221;-70
2023/05/29 02:55:12;;;;;;;7.67;5.47;;;;;;;7.78;79.46;101309.16;5051010;28;20203;-69
2023/05/29 02:57:38;;;;;;;8.03;5.27;;;;;;;7.75;79.34;101309.72;5033506;28;20206;-70
2023/05/29 03:00:07;;;;;;;7.17;5.20;;;;;;;7.73;78.31;101313.72;5050995;28;20256;-70
2023/05/29 03:02:34;;;;;;;9.17;5.73;;;;;;;7.73;79.37;101325.03;5050930;28;20218;-70
2023/05/29 03:05:01;;;;;;;6.67;4.83;;;;;;;7.70;79.34;101324.81;5021803;28;20888;-70
2023/05/29 03:07:27;;;;;;;8.17;5.27;;;;;;;7.65;78.37;101322.25;5020015;28;20210;-70
2023/05/29 03:09:57;;;;;;;6.03;5.07;;;;;;;7.63;78.57;101313.88;5033227;28;20589;-70
2023/05/29 03:12:24;;;;;;;5.73;5.20;;;;;;;7.67;79.26;101325.38;5033223;28;20714;-70
2023/05/29 03:14:53;;;;;;;7.77;5.57;;;;;;;7.68;79.46;101321.69;5016497;28;20200;-69
2023/05/29 03:17:20;;;;;;;6.80;5.13;;;;;;;7.65;79.55;101327.50;5032868;28;20207;-69
2023/05/29 03:19:47;;;;;;;6.30;5.00;;;;;;;7.64;79.64;101324.13;5032773;28;20230;-70
2023/05/29 03:22:13;;;;;;;6.17;4.53;;;;;;;7.61;79.92;101327.31;5033026;28;20215;-70
2023/05/29 03:24:41;;;;;;;10.97;5.00;;;;;;;7.61;80.21;101323.91;5032964;28;20629;-70
2023/05/29 03:27:10;;;;;;;7.00;4.97;;;;;;;7.63;79.92;101322.56;5032923;28;20678;-70
2023/05/29 03:29:37;;;;;;;11.13;5.03;;;;;;;7.67;79.92;101320.91;5024571;28;20211;-70
2023/05/29 03:32:05;;;;;;;7.17;5.43;;;;;;;7.66;80.06;101327.22;5025679;28;20247;-70
2023/05/29 03:34:34;;;;;;;5.20;3.90;;;;;;;7.69;79.92;101323.25;5016757;28;20698;-70
2023/05/29 03:37:03;;;;;;;7.10;5.40;;;;;;;7.74;79.75;101325.78;5029095;28;20735;-70
2023/05/29 03:39:30;;;;;;;6.40;5.37;;;;;;;7.76;79.90;101321.03;5032591;28;20211;-70
2023/05/29 03:41:58;;;;;;;7.13;4.77;;;;;;;7.78;79.94;101327.56;5033008;28;20758;-70
2023/05/29 03:44:29;;;;;;;6.23;4.97;;;;;;;7.83;79.58;101327.47;5032967;28;20325;-69
2023/05/29 03:46:55;;;;;;;7.80;4.67;;;;;;;7.89;79.80;101336.06;5029710;28;20254;-70
2023/05/29 03:49:22;;;;;;;5.47;4.43;;;;;;;7.92;79.74;101333.63;5018583;28;20233;-71
2023/05/29 03:51:49;;;;;;;7.17;5.23;;;;;;;7.96;79.69;101342.50;5032443;28;20223;-70
2023/05/29 03:54:16;;;;;;;7.23;4.80;;;;;;;8.01;79.62;101337.16;5032160;28;20195;-70
2023/05/29 03:56:44;;;;;;;6.77;5.07;;;;;;;8.08;79.27;101342.03;5032694;28;20195;-70
2023/05/29 03:59:13;;;;;;;5.53;4.33;;;;;;;8.15;79.11;101339.81;5032066;28;20195;-70
2023/05/29 04:01:41;;;;;;;6.23;4.60;;;;;;;8.26;79.39;101342.00;5029783;28;20230;-70
2023/05/29 04:04:07;;;;;;;10.07;4.97;;;;;;;8.32;79.41;101350.56;5031845;28;20287;-70
2023/05/29 04:06:38;;;;;;;5.93;4.93;;;;;;;8.43;79.26;101344.06;5049424;28;20194;-70
2023/05/29 04:09:05;;;;;;;7.43;4.73;;;;;;;8.55;79.64;101349.63;5032107;28;20226;-70
2023/05/29 04:11:34;;;;;;;5.97;5.03;;;;;;;8.67;79.22;101348.06;5032390;28;20752;-69
2023/05/29 04:14:03;;;;;;;7.97;5.13;;;;;;;8.77;78.91;101357.59;5032118;28;20202;-70
2023/05/29 04:16:32;;;;;;;7.40;5.50;;;;;;;8.88;78.81;101357.09;5031830;28;20288;-70
2023/05/29 04:19:01;;;;;;;7.43;5.40;;;;;;;9.01;78.79;101353.66;5029424;28;20294;-70
2023/05/29 04:21:32;;;;;;;11.40;5.37;;;;;;;9.15;78.29;101357.06;5035124;28;20586;-70
2023/05/29 04:24:00;;;;;;;8.13;5.60;;;;;;;9.29;78.25;101357.81;5035396;28;20238;-70
2023/05/29 04:26:26;;;;;;;6.50;4.73;;;;;;;9.37;77.74;101349.16;5034409;28;20222;-69
2023/05/29 04:28:57;;;;;;;7.57;4.80;;;;;;;9.49;77.29;101362.63;5052946;28;20199;-70
2023/05/29 04:31:26;;;;;;;6.80;4.73;;;;;;;9.59;76.57;101359.75;5035167;28;20239;-69
2023/05/29 04:33:55;;;;;;;5.67;4.70;;;;;;;9.74;76.63;101363.88;5027052;28;20226;-70
2023/05/29 04:36:25;;;;;;;5.97;5.37;;;;;;;9.84;75.64;101359.13;5040641;28;20206;-70
2023/05/29 04:38:53;;;;;;;6.20;4.90;;;;;;;9.97;75.88;101366.19;5035745;28;20191;-69
2023/05/29 04:41:23;;;;;;;5.83;4.20;;;;;;;10.07;74.80;101365.97;5033660;28;20230;-69
2023/05/29 04:43:50;;;;;;;5.43;4.50;;;;;;;10.18;74.82;101364.63;5034601;28;20200;-70
2023/05/29 04:46:18;;;;;;;5.13;4.30;;;;;;;10.28;74.72;101374.94;5034700;28;20250;-70
2023/05/29 04:48:45;;;;;;;8.63;5.27;;;;;;;10.37;73.14;101378.38;5033955;28;20200;-69
2023/05/29 04:51:11;;;;;;;7.17;4.47;;;;;;;10.48;72.86;101382.31;5025855;28;20222;-70
2023/05/29 04:53:40;;;;;;;6.37;4.43;;;;;;;10.59;72.53;101391.53;5025257;28;20668;-69
2023/05/29 04:56:08;;;;;;;6.60;4.70;;;;;;;10.69;71.95;101385.16;5049728;28;20196;-69
2023/05/29 04:58:35;;;;;;;8.63;4.67;;;;;;;10.83;71.07;101389.28;5035545;28;20204;-69
2023/05/29 05:01:04;;;;;;;6.57;4.53;;;;;;;10.94;71.00;101387.13;5046348;28;20205;-70
2023/05/29 05:03:33;;;;;;;8.73;4.70;;;;;;;11.05;70.22;101378.59;5031975;28;20224;-69
2023/05/29 05:06:00;;;;;;;9.07;4.67;;;;;;;11.17;69.54;101384.03;5023339;28;20217;-70
2023/05/29 05:08:26;;;;;;;6.37;4.53;;;;;;;11.29;68.95;101386.84;5024752;28;20312;-70
2023/05/29 05:10:54;;;;;;;6.37;4.73;;;;;;;11.42;68.17;101387.78;5027847;28;20290;-70
2023/05/29 05:13:21;;;;;;;8.63;4.50;;;;;;;11.53;68.85;101387.16;5042536;28;20289;-70
2023/05/29 05:15:47;;;;;;;8.90;5.00;;;;;;;11.67;68.44;101394.97;5034566;28;20207;-70
2023/05/29 05:18:14;;;;;;;9.90;4.20;;;;;;;11.79;68.19;101387.97;5033930;28;20713;-70
2023/05/29 05:20:42;;;;;;;8.07;4.17;;;;;;;11.92;68.00;101383.59;5035570;28;20223;-70
2023/05/29 05:23:10;;;;;;;7.33;4.43;;;;;;;12.07;67.30;101389.16;5026705;28;20985;-70
2023/05/29 05:25:38;;;;;;;7.70;4.50;;;;;;;12.17;67.04;101385.41;5036910;28;20294;-69
2023/05/29 05:28:06;;;;;;;5.33;3.67;;;;;;;12.29;65.95;101385.50;5026817;28;20637;-69
2023/05/29 05:30:37;;;;;;;10.57;4.83;;;;;;;12.42;65.94;101389.84;5026940;28;20202;-70
2023/05/29 05:33:04;;;;;;;8.23;4.00;;;;;;;12.54;66.31;101392.59;5033211;28;20266;-69
2023/05/29 05:35:30;;;;;;;7.33;3.60;;;;;;;12.69;64.99;101389.41;5049568;28;20211;-70
2023/05/29 05:37:57;;;;;;;8.17;4.43;;;;;;;12.81;64.59;101392.13;5027683;28;20197;-69
2023/05/29 05:40:26;;;;;;;7.70;4.20;;;;;;;12.93;64.18;101390.34;5025567;28;20241;-70
2023/05/29 05:42:59;;;;;;;5.87;3.70;;;;;;;13.03;64.08;101391.88;5050194;28;20236;-70
2023/05/29 05:45:47;;;;;;;7.30;3.73;;;;;;;13.14;62.96;101385.88;5051888;28;20208;-70
2023/05/29 05:48:13;;;;;;;6.87;4.00;;;;;;;13.24;63.17;101388.16;5033780;28;20235;-70
2023/05/29 05:50:40;;;;;;;8.70;3.80;;;;;;;13.36;62.96;101393.50;5032736;28;20232;-70
2023/05/29 05:53:07;;;;;;;9.47;3.87;;;;;;;13.47;62.76;101392.06;5024721;28;20821;-70
2023/05/29 05:55:33;;;;;;;5.10;3.63;;;;;;;13.60;62.14;101398.16;5039056;28;20211;-70
2023/05/29 05:58:00;;;;;;;8.97;3.97;;;;;;;13.72;61.86;101396.34;5032210;28;20203;-69
2023/05/29 06:00:26;;;;;;;9.73;4.00;;;;;;;13.86;61.26;101401.34;5030965;28;20215;-70
2023/05/29 06:02:59;;;;;;;8.57;4.20;;;;;;;13.99;61.29;101400.31;5022686;28;20648;-70
2023/05/29 06:05:52;;;;;;;7.83;3.97;;;;;;;14.13;60.30;101400.78;5030312;28;20199;-69
2023/05/29 06:08:18;;;;;;;7.87;3.37;;;;;;;14.24;59.56;101409.91;5032512;28;20257;-70
2023/05/29 06:10:45;;;;;;;6.87;3.80;;;;;;;14.35;59.61;101408.38;5043252;28;20678;-70
2023/05/29 06:13:13;;;;;;;5.70;3.37;;;;;;;14.43;59.90;101400.31;5032302;28;20201;-69
2023/05/29 06:15:46;;;;;;;7.97;3.63;;;;;;;14.56;58.81;101409.06;5033095;28;20197;-70
2023/05/29 06:18:13;;;;;;;9.07;4.43;;;;;;;14.66;58.77;101413.94;5040226;28;20207;-70
2023/05/29 06:20:41;;;;;;;9.50;3.87;;;;;;;14.75;58.81;101404.00;5050993;28;20612;-69
2023/05/29 06:23:08;;;;;;;7.37;3.70;;;;;;;14.85;58.68;101408.88;5030641;28;20230;-69
2023/05/29 06:25:36;;;;;;;8.90;4.00;;;;;;;14.96;57.84;101408.06;5038281;28;20200;-70
2023/05/29 06:28:05;;;;;;;7.17;3.70;;;;;;;15.07;57.77;101413.72;5049061;28;20224;-69
2023/05/29 06:30:32;;;;;;;5.70;3.43;;;;;;;15.16;57.36;101414.38;5030981;28;20207;-70
2023/05/29 06:32:59;;;;;;;6.97;3.37;;;;;;;15.25;57.71;101415.78;5032645;28;20221;-70
2023/05/29 06:35:32;;;;;;;5.23;3.57;;;;;;;15.38;56.94;101421.88;5031809;28;20253;-70
2023/05/29 06:37:59;;;;;;;8.20;3.70;;;;;;;15.47;56.54;101425.19;5033281;28;20309;-70
2023/05/29 06:40:26;;;;;;;7.53;3.90;;;;;;;15.54;56.50;101433.38;5032136;28;20258;-70
2023/05/29 06:42:53;;;;;;;7.63;3.60;;;;;;;15.63;56.36;101434.03;5031792;28;20721;-70
2023/05/29 06:45:34;;;;;;;8.37;3.80;;;;;;;15.73;56.69;101431.63;5030452;28;20207;-70
2023/05/29 06:48:01;;;;;;;6.17;3.90;;;;;;;15.89;56.18;101445.00;5032538;28;20212;-70
2023/05/29 06:50:27;;;;;;;9.47;3.83;;;;;;;15.96;56.09;101440.66;5032638;28;20226;-69
2023/05/29 06:52:57;;;;;;;8.33;3.73;;;;;;;16.05;55.98;101445.81;5020698;28;20234;-70
2023/05/29 06:55:30;;;;;;;9.73;3.43;;;;;;;16.17;55.81;101435.09;5029768;28;20287;-71
2023/05/29 06:57:58;;;;;;;7.13;3.63;;;;;;;16.29;54.91;101451.78;5033685;28;20204;-70
2023/05/29 07:00:26;;;;;;;8.17;3.70;;;;;;;16.41;55.85;101445.66;5018015;28;20240;-70
2023/05/29 07:03:09;;;;;;;6.43;3.40;;;;;;;16.55;54.87;101449.44;5032385;28;20221;-71
2023/05/29 07:05:35;;;;;;;6.07;3.17;;;;;;;16.68;54.93;101455.47;5025326;28;20888;-71
2023/05/29 07:08:03;;;;;;;7.67;3.40;;;;;;;16.79;54.69;101456.50;5029133;28;20660;-70
2023/05/29 07:10:29;;;;;;;8.80;4.20;;;;;;;16.91;54.43;101443.81;5047301;28;20240;-70
2023/05/29 07:12:56;;;;;;;10.07;3.33;;;;;;;17.01;53.88;101443.28;5047397;28;20219;-71
2023/05/29 07:15:23;;;;;;;10.37;3.33;;;;;;;17.11;53.88;101448.09;5030641;28;20241;-70
2023/05/29 07:17:49;;;;;;;8.37;3.30;;;;;;;17.22;53.70;101445.66;5027731;28;20204;-71
2023/05/29 07:20:20;;;;;;;10.27;3.37;;;;;;;17.35;52.70;101447.09;5029556;28;20203;-70
2023/05/29 07:22:48;;;;;;;8.20;3.53;;;;;;;17.45;52.24;101442.00;5030116;28;20217;-71
2023/05/29 07:25:16;;;;;;;5.70;3.20;;;;;;;17.56;52.80;101445.69;5026011;28;20208;-71
2023/05/29 07:27:43;;;;;;;4.33;3.10;;;;;;;17.65;51.78;101446.22;5028348;28;20226;-70
2023/05/29 07:30:10;;;;;;;5.90;3.30;;;;;;;17.80;52.41;101448.03;5031156;28;20674;-71
2023/05/29 07:32:37;;;;;;;7.43;3.30;;;;;;;17.91;52.16;101450.94;5030440;28;20297;-70
2023/05/29 07:35:05;;;;;;;6.60;3.50;;;;;;;18.02;51.08;101447.34;5033851;28;20218;-71
2023/05/29 07:37:33;;;;;;;11.00;3.30;;;;;;;18.11;50.89;101450.53;5024428;28;20219;-74
2023/05/29 07:40:00;;;;;;;7.93;3.17;;;;;;;18.21;49.23;101449.22;5011033;28;20228;-73
2023/05/29 07:42:51;;;;;;;5.87;3.30;;;;;;;18.29;49.92;101446.28;5015913;28;20220;-73
2023/05/29 07:45:17;;;;;;;6.07;2.97;;;;;;;18.39;50.51;101445.75;5010838;28;20287;-72
2023/05/29 07:47:44;;;;;;;5.33;2.83;;;;;;;18.52;49.35;101462.38;5024189;28;20734;-72
2023/05/29 07:50:12;;;;;;;5.70;2.87;;;;;;;18.62;47.37;101456.44;5009952;28;20237;-72
2023/05/29 07:52:39;;;;;;;5.37;2.87;;;;;;;18.71;48.09;101462.28;5020124;28;20274;-72
2023/05/29 07:55:05;;;;;;;3.97;2.77;;;;;;;18.79;49.20;101467.41;5027552;28;20630;-72
2023/05/29 07:57:33;;;;;;;5.90;2.93;;;;;;;18.90;48.62;101459.53;5032141;28;20200;-72
2023/05/29 08:00:05;;;;;;;9.03;2.90;;;;;;;19.00;48.43;101470.41;5030867;28;20242;-72
2023/05/29 08:02:32;;;;;;;7.77;2.83;;;;;;;19.09;46.54;101470.16;5025803;28;20307;-72
2023/05/29 08:05:19;;;;;;;5.90;2.50;;;;;;;19.19;46.02;101464.19;5011605;28;20206;-72
2023/05/29 08:07:46;;;;;;;5.23;2.67;;;;;;;19.25;44.65;101466.19;5032102;28;20212;-72
2023/05/29 08:10:13;;;;;;;4.53;2.40;;;;;;;19.33;46.69;101470.53;5030901;28;20207;-72
2023/05/29 08:12:39;;;;;;;6.13;2.70;;;;;;;19.41;46.71;101466.81;5044284;28;20215;-72
2023/05/29 08:15:09;;;;;;;4.33;2.70;;;;;;;19.51;45.82;101468.84;5031172;28;20694;-72
2023/05/29 08:17:37;;;;;;;7.77;3.20;;;;;;;19.63;46.01;101465.16;5031873;28;20212;-72
2023/05/29 08:20:05;;;;;;;3.90;2.57;;;;;;;19.70;45.57;101463.34;5042058;28;20215;-72
2023/05/29 08:22:33;;;;;;;6.13;2.80;;;;;;;19.81;44.97;101466.94;5031665;28;20247;-72
2023/05/29 08:25:01;;;;;;;4.60;2.67;;;;;;;19.93;45.36;101466.66;5015826;28;20667;-72
2023/05/29 08:27:27;;;;;;;5.90;2.80;;;;;;;20.02;45.66;101467.16;5036499;28;20196;-72
2023/05/29 08:29:54;;;;;;;9.13;2.63;;;;;;;20.12;45.15;101465.78;5012636;28;20217;-72
2023/05/29 08:32:22;;;;;;;7.00;2.80;;;;;;;20.20;44.42;101465.47;5031258;28;20298;-72
2023/05/29 08:34:49;;;;;;;7.20;3.07;;;;;;;20.28;44.87;101474.34;5031026;28;20235;-72
2023/05/29 08:37:16;;;;;;;4.73;2.83;;;;;;;20.37;44.50;101469.44;5029154;28;20211;-72
2023/05/29 08:39:42;;;;;;;5.67;3.10;;;;;;;20.42;41.66;101466.44;5030806;28;20204;-72
2023/05/29 08:42:15;;;;;;;6.37;2.87;;;;;;;20.46;42.92;101472.59;5032323;28;20230;-72
2023/05/29 08:44:43;;;;;;;7.20;3.00;;;;;;;20.49;43.48;101469.19;5024668;28;20215;-72
2023/05/29 08:47:15;;;;;;;4.57;2.80;;;;;;;20.56;43.28;101466.56;5029354;28;20199;-72
2023/05/29 08:49:43;;;;;;;5.70;2.50;;;;;;;20.61;41.93;101464.31;5027323;28;20261;-72
2023/05/29 08:52:12;;;;;;;4.67;2.60;;;;;;;20.70;41.83;101458.63;5029861;28;20224;-72
2023/05/29 08:54:39;;;;;;;5.27;2.40;;;;;;;20.76;41.46;101457.91;5035295;28;20207;-72
2023/05/29 08:57:06;;;;;;;6.53;2.77;;;;;;;20.83;41.49;101455.28;5025774;28;20667;-72
2023/05/29 08:59:34;;;;;;;6.07;2.57;;;;;;;20.90;40.80;101457.28;5030834;28;20196;-72
2023/05/29 09:02:00;;;;;;;4.13;2.33;;;;;;;20.95;41.70;101460.38;5028403;28;20269;-72
2023/05/29 09:04:30;;;;;;;6.80;2.90;;;;;;;21.04;42.03;101463.50;5028800;28;20207;-72
2023/05/29 09:06:58;;;;;;;6.20;2.90;;;;;;;21.13;41.50;101458.56;5029669;28;20203;-72
2023/05/29 09:09:26;;;;;;;5.30;2.77;;;;;;;21.23;41.04;101457.09;5028756;28;21261;-72
2023/05/29 09:11:53;;;;;;;5.40;2.97;;;;;;;21.31;40.55;101458.69;5025571;28;20431;-72
2023/05/29 09:14:36;;;;;;;8.80;2.70;;;;;;;21.38;40.31;101456.00;5028058;28;20198;-72
2023/05/29 09:17:03;;;;;;;4.50;2.40;;;;;;;21.43;39.74;101455.66;5030675;28;20213;-72
2023/05/29 09:19:30;;;;;;;4.80;2.43;;;;;;;21.47;38.69;101456.44;5033809;28;20538;-72
2023/05/29 09:22:03;;;;;;;6.60;2.70;;;;;;;21.53;40.28;101450.31;5039459;28;20303;-72
2023/05/29 09:24:30;;;;;;;4.90;2.53;;;;;;;21.59;38.31;101453.41;5020195;28;20197;-72
2023/05/29 09:26:59;;;;;;;4.47;2.30;;;;;;;21.65;37.63;101460.75;5028696;28;20566;-72
2023/05/29 09:29:26;;;;;;;4.43;2.50;;;;;;;21.68;37.93;101460.00;5027302;28;20215;-72
2023/05/29 09:31:52;;;;;;;5.20;2.50;;;;;;;21.70;36.00;101465.00;5025343;28;20216;-72
2023/05/29 09:34:18;;;;;;;3.70;2.30;;;;;;;21.72;35.53;101447.34;5023425;28;20657;-72
2023/05/29 09:36:45;;;;;;;5.37;2.30;;;;;;;21.78;35.66;101461.22;5009464;28;20687;-72
2023/05/29 09:39:14;;;;;;;4.40;2.13;;;;;;;21.79;36.26;101458.13;5024859;28;20224;-72
2023/05/29 09:41:42;;;;;;;4.40;2.50;;;;;;;21.80;34.74;101454.31;5028505;28;20250;-72
2023/05/29 09:44:13;;;;;;;4.03;2.30;;;;;;;21.87;36.81;101457.00;5032541;28;20200;-72
2023/05/29 09:46:39;;;;;;;4.27;2.30;;;;;;;21.87;37.14;101456.22;5034470;28;20629;-72
2023/05/29 09:49:10;;;;;;;4.53;2.20;;;;;;;21.90;36.01;101460.84;5028829;28;20657;-72
2023/05/29 09:51:37;;;;;;;3.23;2.13;;;;;;;21.89;35.37;101456.63;5031161;28;20224;-72
2023/05/29 09:54:16;;;;;;;2.80;2.13;;;;;;;21.91;36.22;101447.03;5035576;28;20200;-72
2023/05/29 09:56:43;;;;;;;4.67;2.23;;;;;;;21.97;36.06;101453.56;5025633;28;20219;-72
2023/05/29 09:59:12;;;;;;;4.70;2.27;;;;;;;22.07;36.95;101446.66;5027777;28;20236;-72
2023/05/29 10:01:41;;;;;;;4.03;2.33;;;;;;;22.14;35.95;101435.94;5024436;28;20839;-72
2023/05/29 10:04:08;;;;;;;3.90;2.33;;;;;;;22.22;36.24;101440.94;5027345;28;20199;-72
2023/05/29 10:06:37;;;;;;;4.23;2.00;;;;;;;22.25;35.54;101442.09;5029089;28;20666;-72
2023/05/29 10:09:07;;;;;;;4.37;2.17;;;;;;;22.32;34.60;101450.16;5031757;28;20206;-72
2023/05/29 10:11:38;;;;;;;3.90;2.23;;;;;;;22.40;35.92;101441.72;5022182;28;20494;-72
2023/05/29 10:14:06;;;;;;;4.50;2.20;;;;;;;22.52;34.30;101454.06;5026246;28;20200;-72
2023/05/29 10:16:38;;;;;;;3.87;2.30;;;;;;;22.63;33.78;101449.44;5026009;28;20200;-72
2023/05/29 10:19:07;;;;;;;3.07;2.30;;;;;;;22.74;34.01;101442.91;5031571;28;20675;-72
2023/05/29 10:21:38;;;;;;;4.17;2.07;;;;;;;22.86;33.88;101449.81;5022528;28;20219;-72
2023/05/29 10:24:07;;;;;;;3.33;2.30;;;;;;;22.94;33.77;101448.63;5027699;28;20203;-72
2023/05/29 10:26:37;;;;;;;3.47;2.10;;;;;;;22.90;33.86;101450.56;5026200;28;20257;-72
2023/05/29 10:29:13;;;;;;;3.88;2.50;;;;;;;22.86;33.92;101450.56;5025603;28;20200;-72
2023/05/29 10:31:47;;;;;;;3.50;2.17;;;;;;;22.89;34.23;101449.03;5026923;28;20349;-72
2023/05/29 10:34:26;;;;;;;4.45;2.45;;;;;;;22.97;34.55;101453.25;5026707;28;20208;-72
2023/05/29 10:37:02;;;;;;;2.35;1.90;;;;;;;23.01;31.97;101451.31;5045676;28;20198;-72
2023/05/29 10:39:28;;;;;;;2.97;2.67;;;;;;;23.07;33.92;101445.13;5044072;28;20196;-72
2023/05/29 10:41:58;;;;;;;2.75;2.10;;;;;;;23.15;34.34;101443.19;5044622;28;20215;-72
2023/05/29 10:44:42;;;;;;;3.50;2.20;;;;;;;23.20;32.66;101453.59;5043926;28;20199;-72
2023/05/29 10:47:10;;;;;;;4.43;1.80;;;;;;;23.15;32.40;101448.59;5045679;28;20195;-72
2023/05/29 10:49:37;;;;;;;4.40;2.10;;;;;;;23.12;33.29;101442.03;5044599;28;20211;-72
2023/05/29 10:52:05;;;;;;;3.20;2.28;;;;;;;23.10;33.17;101440.91;5046165;28;20210;-72
2023/05/29 10:54:42;;;;;;;4.82;2.30;;;;;;;23.09;33.83;101434.75;5043389;28;20268;-72
2023/05/29 10:57:10;;;;;;;4.15;2.30;;;;;;;23.10;33.11;101427.44;5044409;28;20257;-72
2023/05/29 10:59:37;;;;;;;3.10;2.13;;;;;;;23.07;33.12;101431.66;5043180;28;20558;-72
2023/05/29 11:02:05;;;;;;;3.25;2.40;;;;;;;23.02;32.20;101434.75;5043697;28;20219;-72
2023/05/29 11:04:32;;;;;;;4.05;2.10;;;;;;;22.96;32.82;101435.53;5041634;28;20203;-72
2023/05/29 11:06:59;;;;;;;4.20;2.33;;;;;;;22.91;32.45;101434.00;5047408;28;20207;-72
2023/05/29 11:09:31;;;;;;;3.05;2.30;;;;;;;22.90;33.91;101432.47;5042876;28;20749;-72
2023/05/29 11:12:24;;;;;;;4.45;2.35;;;;;;;22.89;33.47;101424.78;5046855;28;20219;-72
2023/05/29 11:14:55;;;;;;;6.18;2.33;;;;;;;22.94;32.90;101429.78;5040987;28;20227;-72
2023/05/29 11:17:33;;;;;;;4.47;2.47;;;;;;;23.09;34.34;101426.69;5039991;28;20738;-72
2023/05/29 11:20:05;;;;;;;3.95;2.10;;;;;;;23.25;32.65;101434.34;5042465;28;20195;-72
2023/05/29 11:22:46;;;;;;;4.35;2.40;;;;;;;23.29;33.79;101430.47;5044310;28;20232;-72
2023/05/29 11:25:14;;;;;;;2.40;2.20;;;;;;;23.17;31.41;101433.59;5037110;28;20199;-72
2023/05/29 11:27:44;;;;;;;5.88;2.40;;;;;;;23.23;32.49;101428.59;5045891;28;20195;-72
2023/05/29 11:30:12;;;;;;;7.28;2.63;;;;;;;23.33;33.31;101427.00;5051116;28;20641;-72
2023/05/29 11:32:40;;;;;;;3.90;2.67;;;;;;;23.36;31.66;101426.22;5047125;28;20220;-72
2023/05/29 11:35:09;;;;;;;3.65;2.40;;;;;;;23.32;32.12;101430.88;5047471;28;20211;-72